createdAt,value
2022-12-25T00:01:19.166Z,99795.16
2022-12-25T00:03:46.731Z,99799.28
2022-12-25T00:06:14.111Z,99804.28
2022-12-25T00:08:41.251Z,99814.69
2022-12-25T00:11:12.729Z,99818.25
2022-12-25T00:13:39.904Z,99827.81
2022-12-25T00:16:19.506Z,99822.41
2022-12-25T00:18:47.695Z,99829.91
2022-12-25T00:21:15.591Z,99839.06
2022-12-25T00:23:43.302Z,99846.13
2022-12-25T00:26:14.192Z,99828.22
2022-12-25T00:28:41.290Z,99850.69
2022-12-25T00:31:11.318Z,99860.06
2022-12-25T00:33:40.193Z,99859.34
2022-12-25T00:36:08.568Z,99864.00
2022-12-25T00:38:37.248Z,99849.66
2022-12-25T00:41:15.344Z,99855.50
2022-12-25T00:43:43.247Z,99852.25
2022-12-25T00:46:13.518Z,99869.03
2022-12-25T00:48:41.506Z,99871.41
2022-12-25T00:51:11.745Z,99877.94
2022-12-25T00:53:39.048Z,99875.03
2022-12-25T00:56:08.265Z,99887.53
2022-12-25T00:58:36.292Z,99881.69
2022-12-25T01:01:04.344Z,99885.44
2022-12-25T01:03:31.809Z,99892.31
2022-12-25T01:06:01.320Z,99898.22
2022-12-25T01:08:30.836Z,99901.50
2022-12-25T01:11:06.227Z,99915.28
2022-12-25T01:13:35.425Z,99903.13
2022-12-25T01:16:12.091Z,99914.13
2022-12-25T01:18:39.202Z,99922.56
2022-12-25T01:21:16.312Z,99929.72
2022-12-25T01:23:44.721Z,99935.88
2022-12-25T01:26:13.127Z,99923.94
2022-12-25T01:28:40.932Z,99933.31
2022-12-25T01:31:26.825Z,99931.66
2022-12-25T01:33:53.993Z,99927.66
2022-12-25T01:36:26.177Z,99937.56
2022-12-25T01:38:55.014Z,99945.03
2022-12-25T01:41:24.707Z,99949.41
2022-12-25T01:44:06.046Z,99944.38
2022-12-25T01:46:33.870Z,99941.06
2022-12-25T01:49:12.025Z,99953.97
2022-12-25T01:51:50.384Z,99959.34
2022-12-25T01:54:25.907Z,99963.81
2022-12-25T01:56:54.946Z,99960.97
2022-12-25T01:59:24.835Z,99958.50
2022-12-25T02:01:52.287Z,99967.72
2022-12-25T02:04:38.948Z,99962.66
2022-12-25T02:07:14.418Z,99977.25
2022-12-25T02:09:42.155Z,99981.22
2022-12-25T02:12:14.078Z,99978.34
2022-12-25T02:14:41.302Z,99965.53
2022-12-25T02:17:23.521Z,99982.75
2022-12-25T02:19:59.671Z,99982.97
2022-12-25T02:23:22.154Z,99992.25
2022-12-25T02:26:07.352Z,100003.28
2022-12-25T02:28:45.714Z,100012.28
2022-12-25T02:31:22.101Z,100005.88
2022-12-25T02:34:13.194Z,100019.72
2022-12-25T02:36:46.243Z,100029.16
2022-12-25T02:39:51.449Z,100026.75
2022-12-25T02:43:05.416Z,100018.78
2022-12-25T02:46:09.254Z,100021.75
2022-12-25T02:49:01.719Z,100034.34
2022-12-25T02:51:52.322Z,100032.59
2022-12-25T02:54:45.090Z,100050.84
2022-12-25T02:57:33.596Z,100037.09
2022-12-25T03:00:21.383Z,100042.13
2022-12-25T03:03:08.238Z,100037.13
2022-12-25T03:05:58.644Z,100032.34
2022-12-25T03:08:40.172Z,100050.72
2022-12-25T03:11:28.841Z,100061.78
2022-12-25T03:14:26.670Z,100062.31
2022-12-25T03:16:56.723Z,100060.84
2022-12-25T03:19:47.547Z,100068.44
2022-12-25T03:22:40.385Z,100063.63
2022-12-25T03:25:26.179Z,100065.91
2022-12-25T03:27:56.292Z,100078.34
2022-12-25T03:31:03.786Z,100080.47
2022-12-25T03:34:23.784Z,100083.53
2022-12-25T03:37:02.598Z,100085.59
2022-12-25T03:39:57.744Z,100083.56
2022-12-25T03:43:07.181Z,100085.38
2022-12-25T03:46:06.599Z,100089.78
2022-12-25T03:48:58.752Z,100095.84
2022-12-25T03:51:50.970Z,100093.50
2022-12-25T03:54:41.402Z,100099.69
2022-12-25T03:57:28.809Z,100091.91
2022-12-25T04:00:14.978Z,100096.03
2022-12-25T04:03:00.486Z,100117.34
2022-12-25T04:05:46.144Z,100116.59
2022-12-25T04:08:31.692Z,100116.84
2022-12-25T04:11:17.142Z,100117.78
2022-12-25T04:14:02.752Z,100124.81
2022-12-25T04:16:48.405Z,100129.16
2022-12-25T04:19:33.864Z,100142.25
2022-12-25T04:22:19.392Z,100126.66
2022-12-25T04:25:04.779Z,100134.34
2022-12-25T04:27:50.256Z,100146.16
2022-12-25T04:30:35.706Z,100148.63
2022-12-25T04:33:21.431Z,100153.56
2022-12-25T04:36:07.485Z,100156.53
2022-12-25T04:38:35.148Z,100158.44
2022-12-25T04:41:02.827Z,100146.94
2022-12-25T04:43:30.587Z,100148.66
2022-12-25T04:45:59.782Z,100163.31
2022-12-25T04:48:28.522Z,100147.28
2022-12-25T04:50:56.364Z,100173.06
2022-12-25T04:53:23.488Z,100177.75
2022-12-25T04:55:50.529Z,100178.97
2022-12-25T04:58:17.610Z,100167.50
2022-12-25T05:00:44.599Z,100178.31
2022-12-25T05:03:11.771Z,100195.66
2022-12-25T05:05:40.763Z,100183.81
2022-12-25T05:08:07.944Z,100194.34
2022-12-25T05:10:35.045Z,100192.06
2022-12-25T05:13:02.135Z,100196.09
2022-12-25T05:15:29.167Z,100209.16
2022-12-25T05:17:56.182Z,100193.34
2022-12-25T05:20:23.297Z,100204.56
2022-12-25T05:22:50.418Z,100230.56
2022-12-25T05:25:17.410Z,100227.34
2022-12-25T05:27:48.701Z,100232.22
2022-12-25T05:30:19.106Z,100237.81
2022-12-25T05:32:48.046Z,100243.84
2022-12-25T05:35:15.303Z,100234.50
2022-12-25T05:37:42.313Z,100252.53
2022-12-25T05:40:09.971Z,100262.47
2022-12-25T05:42:37.051Z,100268.94
2022-12-25T05:45:04.377Z,100260.56
2022-12-25T05:47:31.496Z,100274.25
2022-12-25T05:49:58.480Z,100261.59
2022-12-25T05:52:25.490Z,100273.59
2022-12-25T05:54:52.503Z,100280.22
2022-12-25T05:57:19.531Z,100275.28
2022-12-25T05:59:46.529Z,100282.13
2022-12-25T06:02:13.674Z,100284.28
2022-12-25T06:04:40.868Z,100292.22
2022-12-25T06:07:07.909Z,100297.75
2022-12-25T06:09:34.921Z,100292.22
2022-12-25T06:12:01.946Z,100296.66
2022-12-25T06:14:29.193Z,100294.25
2022-12-25T06:16:56.288Z,100315.00
2022-12-25T06:19:23.406Z,100318.03
2022-12-25T06:21:54.840Z,100295.34
2022-12-25T06:24:25.170Z,100309.97
2022-12-25T06:26:52.244Z,100324.56
2022-12-25T06:29:19.672Z,100327.72
2022-12-25T06:31:46.719Z,100330.03
2022-12-25T06:34:16.585Z,100318.53
2022-12-25T06:36:43.703Z,100323.09
2022-12-25T06:39:11.035Z,100320.59
2022-12-25T06:41:38.227Z,100328.97
2022-12-25T06:44:05.490Z,100338.63
2022-12-25T06:46:32.590Z,100344.88
2022-12-25T06:49:00.594Z,100326.75
2022-12-25T06:51:32.290Z,100341.38
2022-12-25T06:54:03.117Z,100339.47
2022-12-25T06:56:30.523Z,100345.53
2022-12-25T06:58:59.968Z,100347.81
2022-12-25T07:01:44.688Z,100356.25
2022-12-25T07:04:17.115Z,100347.75
2022-12-25T07:06:44.146Z,100342.78
2022-12-25T07:09:11.382Z,100333.94
2022-12-25T07:11:38.439Z,100356.38
2022-12-25T07:14:05.562Z,100354.44
2022-12-25T07:16:32.658Z,100349.94
2022-12-25T07:19:01.379Z,100347.94
2022-12-25T07:21:28.517Z,100350.50
2022-12-25T07:23:55.572Z,100351.69
2022-12-25T07:26:22.609Z,100358.38
2022-12-25T07:28:49.653Z,100360.31
2022-12-25T07:31:18.185Z,100362.84
2022-12-25T07:33:45.729Z,100371.53
2022-12-25T07:36:14.329Z,100356.97
2022-12-25T07:38:42.692Z,100370.97
2022-12-25T07:41:11.788Z,100374.34
2022-12-25T07:43:38.980Z,100384.09
2022-12-25T07:46:06.235Z,100375.94
2022-12-25T07:48:33.666Z,100390.53
2022-12-25T07:51:06.303Z,100394.25
2022-12-25T07:53:35.651Z,100368.59
2022-12-25T07:56:08.259Z,100399.34
2022-12-25T07:58:35.582Z,100401.16
2022-12-25T08:01:08.471Z,100408.84
2022-12-25T08:03:36.751Z,100409.97
2022-12-25T08:06:06.827Z,100401.94
2022-12-25T08:08:34.714Z,100426.69
2022-12-25T08:11:02.041Z,100428.44
2022-12-25T08:13:32.309Z,100431.72
2022-12-25T08:16:01.701Z,100442.88
2022-12-25T08:18:30.597Z,100437.53
2022-12-25T08:21:03.406Z,100439.75
2022-12-25T08:23:30.490Z,100441.50
2022-12-25T08:26:05.002Z,100453.09
2022-12-25T08:28:33.711Z,100443.47
2022-12-25T08:31:06.933Z,100449.69
2022-12-25T08:33:34.281Z,100454.59
2022-12-25T08:36:06.628Z,100442.78
2022-12-25T08:38:33.898Z,100452.00
2022-12-25T08:41:01.071Z,100464.81
2022-12-25T08:43:28.168Z,100459.16
2022-12-25T08:45:55.427Z,100445.31
2022-12-25T08:48:22.584Z,100467.56
2022-12-25T08:50:51.191Z,100470.59
2022-12-25T08:53:19.378Z,100473.19
2022-12-25T08:55:46.725Z,100431.66
2022-12-25T08:58:17.229Z,100469.03
2022-12-25T09:00:44.232Z,100462.97
2022-12-25T09:03:11.312Z,100461.13
2022-12-25T09:05:38.643Z,100458.16
2022-12-25T09:08:05.743Z,100475.13
2022-12-25T09:10:36.753Z,100470.91
2022-12-25T09:13:04.456Z,100463.44
2022-12-25T09:15:32.735Z,100476.75
2022-12-25T09:17:59.862Z,100473.66
2022-12-25T09:20:26.937Z,100487.50
2022-12-25T09:22:54.008Z,100490.25
2022-12-25T09:25:21.028Z,100497.09
2022-12-25T09:27:48.023Z,100498.66
2022-12-25T09:30:15.331Z,100505.97
2022-12-25T09:32:44.751Z,100514.06
2022-12-25T09:35:13.996Z,100517.13
2022-12-25T09:37:41.095Z,100518.47
2022-12-25T09:40:10.368Z,100510.63
2022-12-25T09:42:37.455Z,100518.78
2022-12-25T09:45:12.076Z,100506.31
2022-12-25T09:47:42.048Z,100521.38
2022-12-25T09:50:17.745Z,100515.88
2022-12-25T09:53:08.473Z,100521.97
2022-12-25T09:55:43.636Z,100523.22
2022-12-25T09:58:15.536Z,100505.97
2022-12-25T10:00:48.884Z,100529.03
2022-12-25T10:03:37.527Z,100527.94
2022-12-25T10:06:45.852Z,100531.88
2022-12-25T10:09:30.820Z,100533.06
2022-12-25T10:12:09.391Z,100520.47
2022-12-25T10:14:52.468Z,100514.81
2022-12-25T10:17:22.235Z,100533.63
2022-12-25T10:19:52.050Z,100535.47
2022-12-25T10:22:38.527Z,100547.16
2022-12-25T10:25:07.255Z,100544.09
2022-12-25T10:27:40.985Z,100551.66
2022-12-25T10:30:17.078Z,100549.13
2022-12-25T10:32:45.670Z,100546.16
2022-12-25T10:35:15.752Z,100557.91
2022-12-25T10:37:45.134Z,100562.03
2022-12-25T10:40:24.545Z,100550.44
2022-12-25T10:43:17.987Z,100554.16
2022-12-25T10:45:47.269Z,100556.44
2022-12-25T10:48:28.052Z,100551.63
2022-12-25T10:50:56.864Z,100571.97
2022-12-25T10:53:29.031Z,100558.84
2022-12-25T10:56:05.007Z,100572.25
2022-12-25T10:58:33.403Z,100564.34
2022-12-25T11:01:03.939Z,100559.53
2022-12-25T11:03:44.298Z,100571.44
2022-12-25T11:06:32.578Z,100575.56
2022-12-25T11:09:02.751Z,100570.97
2022-12-25T11:11:30.977Z,100569.34
2022-12-25T11:14:01.236Z,100563.91
2022-12-25T11:16:33.193Z,100575.06
2022-12-25T11:19:01.158Z,100573.63
2022-12-25T11:21:37.458Z,100577.66
2022-12-25T11:24:07.046Z,100555.47
2022-12-25T11:26:51.738Z,100569.09
2022-12-25T11:29:36.271Z,100578.44
2022-12-25T11:32:05.943Z,100587.13
2022-12-25T11:34:41.267Z,100588.78
2022-12-25T11:37:28.231Z,100580.19
2022-12-25T11:39:55.422Z,100594.53
2022-12-25T11:42:35.220Z,100595.53
2022-12-25T11:45:28.706Z,100600.13
2022-12-25T11:48:17.243Z,100605.19
2022-12-25T11:50:51.552Z,100593.09
2022-12-25T11:53:39.948Z,100599.88
2022-12-25T11:56:40.560Z,100597.94
2022-12-25T11:59:38.707Z,100603.84
2022-12-25T12:02:20.912Z,100595.59
2022-12-25T12:04:53.677Z,100611.06
2022-12-25T12:07:27.374Z,100609.50
2022-12-25T12:10:19.232Z,100618.75
2022-12-25T12:13:12.329Z,100612.13
2022-12-25T12:15:46.358Z,100625.75
2022-12-25T12:18:22.317Z,100628.09
2022-12-25T12:21:21.340Z,100628.66
2022-12-25T12:24:04.261Z,100644.06
2022-12-25T12:26:36.885Z,100633.47
2022-12-25T12:29:07.149Z,100647.31
2022-12-25T12:31:49.966Z,100645.03
2022-12-25T12:34:46.182Z,100651.25
2022-12-25T12:37:24.869Z,100645.66
2022-12-25T12:39:54.610Z,100654.81
2022-12-25T12:42:30.874Z,100646.75
2022-12-25T12:45:08.931Z,100649.28
2022-12-25T12:47:43.455Z,100656.28
2022-12-25T12:50:41.206Z,100665.78
2022-12-25T12:53:23.587Z,100668.88
2022-12-25T12:55:52.169Z,100666.28
2022-12-25T12:58:33.712Z,100657.56
2022-12-25T13:01:25.622Z,100652.66
2022-12-25T13:04:01.827Z,100655.03
2022-12-25T13:06:40.414Z,100654.94
2022-12-25T13:09:43.758Z,100654.41
2022-12-25T13:12:13.155Z,100669.19
2022-12-25T13:14:46.427Z,100683.47
2022-12-25T13:17:24.520Z,100687.31
2022-12-25T13:19:57.298Z,100689.91
2022-12-25T13:22:32.942Z,100695.88
2022-12-25T13:25:05.175Z,100689.91
2022-12-25T13:27:33.764Z,100692.72
2022-12-25T13:30:11.583Z,100696.28
2022-12-25T13:32:38.744Z,100701.25
2022-12-25T13:35:11.877Z,100708.81
2022-12-25T13:37:39.017Z,100712.72
2022-12-25T13:40:08.475Z,100709.25
2022-12-25T13:42:39.924Z,100704.34
2022-12-25T13:45:21.223Z,100702.84
2022-12-25T13:47:54.670Z,100710.66
2022-12-25T13:50:31.191Z,100711.47
2022-12-25T13:53:11.839Z,100706.97
2022-12-25T13:55:39.824Z,100711.94
2022-12-25T13:58:14.672Z,100697.47
2022-12-25T14:00:52.537Z,100717.22
2022-12-25T14:03:23.724Z,100730.94
2022-12-25T14:06:05.786Z,100730.66
2022-12-25T14:08:35.336Z,100731.03
2022-12-25T14:11:05.588Z,100726.69
2022-12-25T14:13:37.721Z,100719.91
2022-12-25T14:16:05.512Z,100719.41
2022-12-25T14:18:33.539Z,100732.47
2022-12-25T14:21:10.887Z,100731.06
2022-12-25T14:23:49.031Z,100714.38
2022-12-25T14:26:19.884Z,100722.75
2022-12-25T14:28:53.224Z,100724.75
2022-12-25T14:31:22.123Z,100735.63
2022-12-25T14:33:50.364Z,100727.63
2022-12-25T14:36:18.196Z,100738.81
2022-12-25T14:38:57.168Z,100740.94
2022-12-25T14:41:37.993Z,100743.84
2022-12-25T14:44:06.933Z,100750.88
2022-12-25T14:46:34.833Z,100741.03
2022-12-25T14:49:07.317Z,100737.63
2022-12-25T14:51:38.297Z,100751.22
2022-12-25T14:54:13.817Z,100757.84
2022-12-25T14:56:47.354Z,100758.22
2022-12-25T14:59:18.856Z,100763.31
2022-12-25T15:01:52.547Z,100746.75
2022-12-25T15:04:22.347Z,100748.63
2022-12-25T15:07:09.691Z,100758.56
2022-12-25T15:09:37.874Z,100754.84
2022-12-25T15:12:05.408Z,100756.47
2022-12-25T15:14:32.471Z,100759.94
2022-12-25T15:17:01.491Z,100758.56
2022-12-25T15:19:37.395Z,100758.97
2022-12-25T15:22:06.447Z,100763.75
2022-12-25T15:24:33.549Z,100740.19
2022-12-25T15:27:01.026Z,100768.78
2022-12-25T15:32:21.820Z,100755.47
2022-12-25T15:34:50.156Z,100763.88
2022-12-25T15:37:18.565Z,100762.06
2022-12-25T15:39:46.412Z,100772.00
2022-12-25T15:42:19.572Z,100776.50
2022-12-25T15:44:46.776Z,100782.81
2022-12-25T15:47:16.168Z,100775.38
2022-12-25T15:49:43.616Z,100779.00
2022-12-25T15:52:14.177Z,100777.38
2022-12-25T15:54:41.223Z,100780.25
2022-12-25T15:57:18.168Z,100783.13
2022-12-25T15:59:45.259Z,100786.56
2022-12-25T16:02:17.935Z,100784.09
2022-12-25T16:04:45.503Z,100782.69
2022-12-25T16:07:17.790Z,100785.00
2022-12-25T16:09:45.105Z,100792.13
2022-12-25T16:12:12.379Z,100788.38
2022-12-25T16:14:39.494Z,100787.81
2022-12-25T16:17:06.698Z,100790.63
2022-12-25T16:19:33.963Z,100794.72
2022-12-25T16:22:01.168Z,100803.94
2022-12-25T16:24:28.226Z,100802.97
2022-12-25T16:26:55.295Z,100803.63
2022-12-25T16:29:22.309Z,100806.47
2022-12-25T16:31:49.329Z,100804.78
2022-12-25T16:34:16.428Z,100806.13
2022-12-25T16:36:43.424Z,100806.16
2022-12-25T16:39:11.603Z,100814.41
2022-12-25T16:41:38.638Z,100816.69
2022-12-25T16:44:09.586Z,100814.88
2022-12-25T16:46:37.493Z,100817.19
2022-12-25T16:49:04.740Z,100818.00
2022-12-25T16:51:31.770Z,100819.34
2022-12-25T16:53:58.807Z,100812.47
2022-12-25T16:56:28.629Z,100827.91
2022-12-25T16:58:57.980Z,100827.63
2022-12-25T17:01:25.734Z,100836.63
2022-12-25T17:03:53.081Z,100831.34
2022-12-25T17:06:23.876Z,100835.72
2022-12-25T17:08:52.713Z,100839.63
2022-12-25T17:11:24.380Z,100826.75
2022-12-25T17:13:51.413Z,100823.38
2022-12-25T17:16:21.484Z,100834.22
2022-12-25T17:18:48.696Z,100834.28
2022-12-25T17:21:15.812Z,100844.25
2022-12-25T17:23:45.088Z,100842.53
2022-12-25T17:26:12.199Z,100849.28
2022-12-25T17:28:39.316Z,100846.72
2022-12-25T17:31:08.710Z,100846.06
2022-12-25T17:33:36.758Z,100826.72
2022-12-25T17:36:06.482Z,100850.44
2022-12-25T17:38:34.997Z,100856.94
2022-12-25T17:41:05.626Z,100860.63
2022-12-25T17:43:34.839Z,100862.31
2022-12-25T17:46:09.138Z,100855.59
2022-12-25T17:48:36.395Z,100859.88
2022-12-25T17:51:09.740Z,100862.00
2022-12-25T17:53:38.699Z,100860.44
2022-12-25T17:56:06.483Z,100874.34
2022-12-25T17:58:33.637Z,100876.28
2022-12-25T18:01:09.557Z,100873.56
2022-12-25T18:03:36.929Z,100858.59
2022-12-25T18:06:05.423Z,100878.59
2022-12-25T18:08:38.874Z,100878.38
2022-12-25T18:11:15.323Z,100875.88
2022-12-25T18:13:45.136Z,100879.00
2022-12-25T18:16:13.322Z,100879.09
2022-12-25T18:18:45.184Z,100877.53
2022-12-25T18:21:16.732Z,100883.78
2022-12-25T18:23:46.134Z,100868.00
2022-12-25T18:26:13.857Z,100871.00
2022-12-25T18:28:42.704Z,100874.66
2022-12-25T18:31:13.284Z,100878.50
2022-12-25T18:33:40.905Z,100869.59
2022-12-25T18:36:12.370Z,100887.81
2022-12-25T18:38:39.698Z,100887.03
2022-12-25T18:41:09.044Z,100885.44
2022-12-25T18:43:53.254Z,100892.78
2022-12-25T18:46:27.719Z,100901.31
2022-12-25T18:48:56.610Z,100896.94
2022-12-25T18:51:24.438Z,100899.97
2022-12-25T18:53:51.835Z,100892.34
2022-12-25T18:56:20.534Z,100904.94
2022-12-25T18:58:51.654Z,100908.47
2022-12-25T19:01:21.947Z,100908.16
2022-12-25T19:03:51.007Z,100905.72
2022-12-25T19:06:20.564Z,100894.47
2022-12-25T19:08:48.144Z,100904.81
2022-12-25T19:11:18.975Z,100917.78
2022-12-25T19:13:48.398Z,100908.41
2022-12-25T19:16:17.062Z,100896.81
2022-12-25T19:18:45.829Z,100905.63
2022-12-25T19:21:13.058Z,100898.44
2022-12-25T19:23:40.713Z,100903.25
2022-12-25T19:26:09.910Z,100915.44
2022-12-25T19:28:39.963Z,100921.00
2022-12-25T19:31:09.007Z,100933.97
2022-12-25T19:33:40.849Z,100919.09
2022-12-25T19:36:13.231Z,100931.53
2022-12-25T19:38:40.396Z,100926.31
2022-12-25T19:41:09.420Z,100923.16
2022-12-25T19:43:38.690Z,100933.72
2022-12-25T19:46:07.015Z,100931.28
2022-12-25T19:48:36.131Z,100941.00
2022-12-25T19:51:03.372Z,100940.47
2022-12-25T19:53:30.627Z,100943.31
2022-12-25T19:56:01.559Z,100940.56
2022-12-25T19:58:29.823Z,100935.66
2022-12-25T20:01:01.532Z,100929.94
2022-12-25T20:03:28.946Z,100934.50
2022-12-25T20:05:56.660Z,100947.31
2022-12-25T20:08:24.549Z,100947.59
2022-12-25T20:10:52.016Z,100945.78
2022-12-25T20:13:19.407Z,100947.22
2022-12-25T20:15:47.251Z,100924.03
2022-12-25T20:18:14.544Z,100926.06
2022-12-25T20:20:41.586Z,100927.63
2022-12-25T20:23:09.072Z,100941.16
2022-12-25T20:25:41.068Z,100947.03
2022-12-25T20:28:09.032Z,100942.81
2022-12-25T20:30:41.452Z,100939.97
2022-12-25T20:33:08.851Z,100945.16
2022-12-25T20:35:36.974Z,100942.09
2022-12-25T20:38:04.092Z,100937.34
2022-12-25T20:40:37.580Z,100948.03
2022-12-25T20:43:18.237Z,100951.31
2022-12-25T20:45:45.265Z,100960.38
2022-12-25T20:48:12.256Z,100951.25
2022-12-25T20:50:39.300Z,100962.88
2022-12-25T20:53:06.348Z,100968.69
2022-12-25T20:55:33.356Z,100959.34
2022-12-25T20:58:00.360Z,100956.63
2022-12-25T21:00:27.437Z,100961.47
2022-12-25T21:02:54.714Z,100956.44
2022-12-25T21:05:23.130Z,100969.88
2022-12-25T21:07:50.201Z,100962.81
2022-12-25T21:10:17.277Z,100961.34
2022-12-25T21:12:44.338Z,100972.53
2022-12-25T21:15:15.726Z,100978.94
2022-12-25T21:17:43.090Z,100980.56
2022-12-25T21:20:10.567Z,100976.50
2022-12-25T21:22:37.597Z,100976.50
2022-12-25T21:25:04.946Z,100969.88
2022-12-25T21:27:31.933Z,100979.59
2022-12-25T21:29:58.947Z,100990.00
2022-12-25T21:33:01.079Z,100981.97
2022-12-25T21:35:28.117Z,100976.34
2022-12-25T21:37:55.120Z,100985.34
2022-12-25T21:40:22.126Z,100987.59
2022-12-25T21:42:49.159Z,100979.59
2022-12-25T21:45:16.243Z,100992.53
2022-12-25T21:48:02.753Z,100992.50
2022-12-25T21:50:49.004Z,100998.19
2022-12-25T21:53:17.728Z,100990.84
2022-12-25T21:55:56.750Z,100988.25
2022-12-25T21:58:23.872Z,100989.28
2022-12-25T22:00:50.920Z,101001.91
2022-12-25T22:03:17.906Z,100993.88
2022-12-25T22:06:03.394Z,100973.28
2022-12-25T22:08:32.435Z,100994.41
2022-12-25T22:11:03.390Z,100987.41
2022-12-25T22:13:48.925Z,100989.06
2022-12-25T22:16:34.437Z,100999.06
2022-12-25T22:19:20.142Z,101001.22
2022-12-25T22:21:47.172Z,101000.09
2022-12-25T22:24:14.513Z,100996.66
2022-12-25T22:26:44.306Z,100972.47
2022-12-25T22:29:11.347Z,100987.34
2022-12-25T22:31:44.728Z,100986.34
2022-12-25T22:34:15.937Z,100985.47
2022-12-25T22:36:43.390Z,100990.69
2022-12-25T22:39:10.612Z,100984.69
2022-12-25T22:41:37.827Z,101000.28
2022-12-25T22:44:20.875Z,101005.03
2022-12-25T22:46:48.087Z,100998.28
2022-12-25T22:49:17.991Z,101001.44
2022-12-25T22:51:46.061Z,100997.81
2022-12-25T22:54:13.979Z,100962.75
2022-12-25T22:56:41.414Z,100977.28
2022-12-25T22:59:08.711Z,100999.31
2022-12-25T23:01:36.433Z,101001.53
2022-12-25T23:04:03.865Z,101004.69
2022-12-25T23:06:30.970Z,100993.09
2022-12-25T23:08:58.318Z,100991.88
2022-12-25T23:11:25.869Z,101003.81
2022-12-25T23:14:11.455Z,100999.91
2022-12-25T23:16:38.543Z,101009.16
2022-12-25T23:19:25.677Z,101022.94
2022-12-25T23:22:11.463Z,101013.47
2022-12-25T23:24:56.911Z,101021.25
2022-12-25T23:27:23.888Z,101021.25
2022-12-25T23:29:50.885Z,101028.19
2022-12-25T23:32:30.473Z,101031.25
2022-12-25T23:34:57.630Z,101025.13
2022-12-25T23:37:24.649Z,101036.81
2022-12-25T23:39:51.674Z,101035.16
2022-12-25T23:42:18.764Z,101036.13
2022-12-25T23:44:45.873Z,101040.75
2022-12-25T23:47:13.104Z,101052.28
2022-12-25T23:49:40.221Z,101050.94
2022-12-25T23:52:07.259Z,101044.81
2022-12-25T23:54:34.328Z,101046.94
2022-12-25T23:57:01.459Z,101053.13
2022-12-25T23:59:30.731Z,101041.06
